sensor_id;sensor_type;location;lat;lon;timestamp;P1;durP1;ratioP1;P2;durP2;ratioP2
84866;SDS011;75123;51.788;4.654;2024-03-17T00:01:20;8.39;;;8.39;;
84866;SDS011;75123;51.788;4.654;2024-03-17T00:03:45;8.22;;;8.22;;
84866;SDS011;75123;51.788;4.654;2024-03-17T00:06:11;8.54;;;8.54;;
84866;SDS011;75123;51.788;4.654;2024-03-17T00:08:37;8.81;;;8.81;;
84866;SDS011;75123;51.788;4.654;2024-03-17T00:11:02;8.77;;;8.77;;
84866;SDS011;75123;51.788;4.654;2024-03-17T00:13:28;9.21;;;9.21;;
84866;SDS011;75123;51.788;4.654;2024-03-17T00:15:54;8.68;;;8.68;;
84866;SDS011;75123;51.788;4.654;2024-03-17T00:18:19;8.58;;;8.58;;
84866;SDS011;75123;51.788;4.654;2024-03-17T00:20:45;8.95;;;8.95;;
84866;SDS011;75123;51.788;4.654;2024-03-17T00:23:10;9.37;;;9.37;;
84866;SDS011;75123;51.788;4.654;2024-03-17T00:25:37;9.45;;;9.45;;
84866;SDS011;75123;51.788;4.654;2024-03-17T00:28:04;9.49;;;9.49;;
84866;SDS011;75123;51.788;4.654;2024-03-17T00:30:29;9.68;;;9.68;;
84866;SDS011;75123;51.788;4.654;2024-03-17T00:32:56;9.58;;;9.58;;
84866;SDS011;75123;51.788;4.654;2024-03-17T00:35:23;9.81;;;9.81;;
84866;SDS011;75123;51.788;4.654;2024-03-17T00:37:50;9.90;;;9.90;;
84866;SDS011;75123;51.788;4.654;2024-03-17T00:40:17;9.89;;;9.89;;
84866;SDS011;75123;51.788;4.654;2024-03-17T00:42:43;9.79;;;9.79;;
84866;SDS011;75123;51.788;4.654;2024-03-17T00:45:10;10.24;;;10.24;;
84866;SDS011;75123;51.788;4.654;2024-03-17T00:47:36;10.17;;;10.17;;
84866;SDS011;75123;51.788;4.654;2024-03-17T00:50:02;10.09;;;10.09;;
84866;SDS011;75123;51.788;4.654;2024-03-17T00:52:33;9.99;;;9.99;;
84866;SDS011;75123;51.788;4.654;2024-03-17T00:54:59;10.30;;;10.30;;
84866;SDS011;75123;51.788;4.654;2024-03-17T00:57:25;10.34;;;10.34;;
84866;SDS011;75123;51.788;4.654;2024-03-17T00:59:51;11.06;;;11.06;;
84866;SDS011;75123;51.788;4.654;2024-03-17T01:02:18;10.70;;;10.70;;
84866;SDS011;75123;51.788;4.654;2024-03-17T01:04:43;11.30;;;11.30;;
84866;SDS011;75123;51.788;4.654;2024-03-17T01:07:10;11.52;;;11.52;;
84866;SDS011;75123;51.788;4.654;2024-03-17T01:09:36;10.83;;;10.83;;
84866;SDS011;75123;51.788;4.654;2024-03-17T01:12:01;10.72;;;10.72;;
84866;SDS011;75123;51.788;4.654;2024-03-17T01:14:28;11.17;;;11.17;;
84866;SDS011;75123;51.788;4.654;2024-03-17T01:16:55;11.41;;;11.41;;
84866;SDS011;75123;51.788;4.654;2024-03-17T01:19:21;12.06;;;12.06;;
84866;SDS011;75123;51.788;4.654;2024-03-17T01:21:46;11.48;;;11.48;;
84866;SDS011;75123;51.788;4.654;2024-03-17T01:24:12;11.59;;;11.59;;
84866;SDS011;75123;51.788;4.654;2024-03-17T01:26:38;11.16;;;11.16;;
84866;SDS011;75123;51.788;4.654;2024-03-17T01:29:04;11.76;;;11.74;;
84866;SDS011;75123;51.788;4.654;2024-03-17T01:31:29;11.84;;;11.84;;
84866;SDS011;75123;51.788;4.654;2024-03-17T01:33:55;11.96;;;11.96;;
84866;SDS011;75123;51.788;4.654;2024-03-17T01:36:21;11.87;;;11.87;;
84866;SDS011;75123;51.788;4.654;2024-03-17T01:38:46;11.72;;;11.72;;
84866;SDS011;75123;51.788;4.654;2024-03-17T01:41:12;12.41;;;12.41;;
84866;SDS011;75123;51.788;4.654;2024-03-17T01:43:39;12.14;;;12.14;;
84866;SDS011;75123;51.788;4.654;2024-03-17T01:46:04;12.37;;;12.35;;
84866;SDS011;75123;51.788;4.654;2024-03-17T01:48:30;12.47;;;12.47;;
84866;SDS011;75123;51.788;4.654;2024-03-17T01:50:56;12.85;;;12.85;;
84866;SDS011;75123;51.788;4.654;2024-03-17T01:53:23;12.53;;;12.53;;
84866;SDS011;75123;51.788;4.654;2024-03-17T01:55:50;11.82;;;11.82;;
84866;SDS011;75123;51.788;4.654;2024-03-17T01:58:20;12.34;;;12.34;;
84866;SDS011;75123;51.788;4.654;2024-03-17T02:00:46;12.05;;;12.05;;
84866;SDS011;75123;51.788;4.654;2024-03-17T02:03:11;12.59;;;12.59;;
84866;SDS011;75123;51.788;4.654;2024-03-17T02:05:38;12.88;;;12.88;;
84866;SDS011;75123;51.788;4.654;2024-03-17T02:08:07;12.66;;;12.66;;
84866;SDS011;75123;51.788;4.654;2024-03-17T02:10:33;12.66;;;12.66;;
84866;SDS011;75123;51.788;4.654;2024-03-17T02:12:59;12.56;;;12.56;;
84866;SDS011;75123;51.788;4.654;2024-03-17T02:15:25;13.02;;;13.02;;
84866;SDS011;75123;51.788;4.654;2024-03-17T02:17:51;13.28;;;13.28;;
84866;SDS011;75123;51.788;4.654;2024-03-17T02:20:16;13.50;;;13.50;;
84866;SDS011;75123;51.788;4.654;2024-03-17T02:22:43;12.96;;;12.96;;
84866;SDS011;75123;51.788;4.654;2024-03-17T02:25:09;12.87;;;12.87;;
84866;SDS011;75123;51.788;4.654;2024-03-17T02:27:35;12.83;;;12.83;;
84866;SDS011;75123;51.788;4.654;2024-03-17T02:30:02;13.13;;;13.13;;
84866;SDS011;75123;51.788;4.654;2024-03-17T02:32:29;13.34;;;13.34;;
84866;SDS011;75123;51.788;4.654;2024-03-17T02:34:55;13.52;;;13.52;;
84866;SDS011;75123;51.788;4.654;2024-03-17T02:37:22;12.92;;;12.92;;
84866;SDS011;75123;51.788;4.654;2024-03-17T02:39:47;12.92;;;12.92;;
84866;SDS011;75123;51.788;4.654;2024-03-17T02:42:13;13.29;;;13.29;;
84866;SDS011;75123;51.788;4.654;2024-03-17T02:44:38;12.82;;;12.82;;
84866;SDS011;75123;51.788;4.654;2024-03-17T02:47:06;12.52;;;12.52;;
84866;SDS011;75123;51.788;4.654;2024-03-17T02:49:35;13.22;;;13.22;;
84866;SDS011;75123;51.788;4.654;2024-03-17T02:52:09;13.22;;;13.22;;
84866;SDS011;75123;51.788;4.654;2024-03-17T02:54:37;12.94;;;12.94;;
84866;SDS011;75123;51.788;4.654;2024-03-17T02:57:04;13.02;;;13.02;;
84866;SDS011;75123;51.788;4.654;2024-03-17T02:59:31;13.29;;;13.29;;
84866;SDS011;75123;51.788;4.654;2024-03-17T03:01:58;13.13;;;13.13;;
84866;SDS011;75123;51.788;4.654;2024-03-17T03:04:24;12.98;;;12.98;;
84866;SDS011;75123;51.788;4.654;2024-03-17T03:06:50;13.27;;;13.27;;
84866;SDS011;75123;51.788;4.654;2024-03-17T03:09:16;12.50;;;12.50;;
84866;SDS011;75123;51.788;4.654;2024-03-17T03:11:50;12.64;;;12.64;;
84866;SDS011;75123;51.788;4.654;2024-03-17T03:14:17;12.50;;;12.50;;
84866;SDS011;75123;51.788;4.654;2024-03-17T03:16:42;12.64;;;12.64;;
84866;SDS011;75123;51.788;4.654;2024-03-17T03:19:08;12.92;;;12.92;;
84866;SDS011;75123;51.788;4.654;2024-03-17T03:21:34;12.99;;;12.99;;
84866;SDS011;75123;51.788;4.654;2024-03-17T03:24:00;13.43;;;13.43;;
84866;SDS011;75123;51.788;4.654;2024-03-17T03:26:25;13.72;;;13.72;;
84866;SDS011;75123;51.788;4.654;2024-03-17T03:28:51;14.31;;;14.31;;
84866;SDS011;75123;51.788;4.654;2024-03-17T03:31:16;14.74;;;14.74;;
84866;SDS011;75123;51.788;4.654;2024-03-17T03:33:43;15.27;;;15.27;;
84866;SDS011;75123;51.788;4.654;2024-03-17T03:36:12;15.50;;;15.50;;
84866;SDS011;75123;51.788;4.654;2024-03-17T03:38:39;15.49;;;15.49;;
84866;SDS011;75123;51.788;4.654;2024-03-17T03:43:38;15.57;;;15.57;;
84866;SDS011;75123;51.788;4.654;2024-03-17T03:46:03;15.68;;;15.68;;
84866;SDS011;75123;51.788;4.654;2024-03-17T03:48:29;15.08;;;15.08;;
84866;SDS011;75123;51.788;4.654;2024-03-17T03:50:55;15.43;;;15.43;;
84866;SDS011;75123;51.788;4.654;2024-03-17T03:53:20;14.74;;;14.74;;
84866;SDS011;75123;51.788;4.654;2024-03-17T03:55:46;13.91;;;13.91;;
84866;SDS011;75123;51.788;4.654;2024-03-17T03:58:12;14.18;;;14.18;;
84866;SDS011;75123;51.788;4.654;2024-03-17T04:00:38;14.18;;;14.18;;
84866;SDS011;75123;51.788;4.654;2024-03-17T04:03:04;13.50;;;13.50;;
84866;SDS011;75123;51.788;4.654;2024-03-17T04:05:31;13.70;;;13.70;;
84866;SDS011;75123;51.788;4.654;2024-03-17T04:07:57;13.86;;;13.86;;
84866;SDS011;75123;51.788;4.654;2024-03-17T04:10:23;13.58;;;13.58;;
84866;SDS011;75123;51.788;4.654;2024-03-17T04:12:50;14.01;;;14.01;;
84866;SDS011;75123;51.788;4.654;2024-03-17T04:15:16;13.91;;;13.91;;
84866;SDS011;75123;51.788;4.654;2024-03-17T04:17:42;13.65;;;13.65;;
84866;SDS011;75123;51.788;4.654;2024-03-17T04:20:07;13.67;;;13.67;;
84866;SDS011;75123;51.788;4.654;2024-03-17T04:22:34;13.97;;;13.97;;
84866;SDS011;75123;51.788;4.654;2024-03-17T04:25:00;13.89;;;13.88;;
84866;SDS011;75123;51.788;4.654;2024-03-17T04:27:26;13.61;;;13.61;;
84866;SDS011;75123;51.788;4.654;2024-03-17T04:29:52;13.70;;;13.70;;
84866;SDS011;75123;51.788;4.654;2024-03-17T04:32:19;13.50;;;13.50;;
84866;SDS011;75123;51.788;4.654;2024-03-17T04:34:45;13.33;;;13.33;;
84866;SDS011;75123;51.788;4.654;2024-03-17T04:37:10;13.55;;;13.55;;
84866;SDS011;75123;51.788;4.654;2024-03-17T04:39:38;13.89;;;13.89;;
84866;SDS011;75123;51.788;4.654;2024-03-17T04:42:04;14.19;;;14.19;;
84866;SDS011;75123;51.788;4.654;2024-03-17T04:44:31;13.54;;;13.54;;
84866;SDS011;75123;51.788;4.654;2024-03-17T04:46:56;14.07;;;14.07;;
84866;SDS011;75123;51.788;4.654;2024-03-17T04:49:22;14.17;;;14.17;;
84866;SDS011;75123;51.788;4.654;2024-03-17T04:51:47;13.82;;;13.82;;
84866;SDS011;75123;51.788;4.654;2024-03-17T04:54:13;14.06;;;14.06;;
84866;SDS011;75123;51.788;4.654;2024-03-17T04:56:38;13.94;;;13.94;;
84866;SDS011;75123;51.788;4.654;2024-03-17T04:59:04;13.86;;;13.86;;
84866;SDS011;75123;51.788;4.654;2024-03-17T05:01:30;14.34;;;14.34;;
84866;SDS011;75123;51.788;4.654;2024-03-17T05:04:02;13.85;;;13.85;;
84866;SDS011;75123;51.788;4.654;2024-03-17T05:06:28;14.08;;;14.08;;
84866;SDS011;75123;51.788;4.654;2024-03-17T05:08:54;14.46;;;14.46;;
84866;SDS011;75123;51.788;4.654;2024-03-17T05:11:20;14.60;;;14.60;;
84866;SDS011;75123;51.788;4.654;2024-03-17T05:13:46;14.17;;;14.17;;
84866;SDS011;75123;51.788;4.654;2024-03-17T05:16:11;14.35;;;14.35;;
84866;SDS011;75123;51.788;4.654;2024-03-17T05:18:37;14.11;;;14.11;;
84866;SDS011;75123;51.788;4.654;2024-03-17T05:21:05;14.27;;;14.27;;
84866;SDS011;75123;51.788;4.654;2024-03-17T05:23:32;14.33;;;14.28;;
84866;SDS011;75123;51.788;4.654;2024-03-17T05:25:59;14.16;;;14.16;;
84866;SDS011;75123;51.788;4.654;2024-03-17T05:28:26;13.80;;;13.80;;
84866;SDS011;75123;51.788;4.654;2024-03-17T05:30:53;13.86;;;13.86;;
84866;SDS011;75123;51.788;4.654;2024-03-17T05:33:19;14.95;;;14.95;;
84866;SDS011;75123;51.788;4.654;2024-03-17T05:35:56;14.31;;;14.31;;
84866;SDS011;75123;51.788;4.654;2024-03-17T05:38:23;14.91;;;14.91;;
84866;SDS011;75123;51.788;4.654;2024-03-17T05:43:42;14.43;;;14.43;;
84866;SDS011;75123;51.788;4.654;2024-03-17T05:46:09;14.58;;;14.58;;
84866;SDS011;75123;51.788;4.654;2024-03-17T05:48:36;14.07;;;14.07;;
84866;SDS011;75123;51.788;4.654;2024-03-17T05:51:12;14.72;;;14.72;;
84866;SDS011;75123;51.788;4.654;2024-03-17T05:53:38;14.28;;;14.28;;
84866;SDS011;75123;51.788;4.654;2024-03-17T05:56:11;14.37;;;14.37;;
84866;SDS011;75123;51.788;4.654;2024-03-17T05:58:40;13.81;;;13.81;;
84866;SDS011;75123;51.788;4.654;2024-03-17T06:01:05;14.25;;;14.25;;
84866;SDS011;75123;51.788;4.654;2024-03-17T06:03:32;14.23;;;14.23;;
84866;SDS011;75123;51.788;4.654;2024-03-17T06:06:01;13.81;;;13.81;;
84866;SDS011;75123;51.788;4.654;2024-03-17T06:08:28;14.17;;;14.17;;
84866;SDS011;75123;51.788;4.654;2024-03-17T06:10:54;14.55;;;14.55;;
84866;SDS011;75123;51.788;4.654;2024-03-17T06:13:22;14.40;;;14.40;;
84866;SDS011;75123;51.788;4.654;2024-03-17T06:15:48;14.04;;;14.04;;
84866;SDS011;75123;51.788;4.654;2024-03-17T06:18:13;13.70;;;13.70;;
84866;SDS011;75123;51.788;4.654;2024-03-17T06:20:41;13.42;;;13.42;;
84866;SDS011;75123;51.788;4.654;2024-03-17T06:23:08;13.93;;;13.93;;
84866;SDS011;75123;51.788;4.654;2024-03-17T06:25:39;13.82;;;13.82;;
84866;SDS011;75123;51.788;4.654;2024-03-17T06:28:09;13.65;;;13.65;;
84866;SDS011;75123;51.788;4.654;2024-03-17T06:30:42;14.37;;;14.37;;
84866;SDS011;75123;51.788;4.654;2024-03-17T06:33:13;14.41;;;14.41;;
84866;SDS011;75123;51.788;4.654;2024-03-17T06:35:41;14.62;;;14.61;;
84866;SDS011;75123;51.788;4.654;2024-03-17T06:38:06;13.70;;;13.70;;
84866;SDS011;75123;51.788;4.654;2024-03-17T06:40:35;13.73;;;13.73;;
84866;SDS011;75123;51.788;4.654;2024-03-17T06:43:04;13.87;;;13.87;;
84866;SDS011;75123;51.788;4.654;2024-03-17T06:45:30;13.86;;;13.86;;
84866;SDS011;75123;51.788;4.654;2024-03-17T06:47:55;13.95;;;13.95;;
84866;SDS011;75123;51.788;4.654;2024-03-17T06:50:21;13.82;;;13.82;;
84866;SDS011;75123;51.788;4.654;2024-03-17T06:52:47;13.25;;;13.23;;
84866;SDS011;75123;51.788;4.654;2024-03-17T06:55:12;13.63;;;13.63;;
84866;SDS011;75123;51.788;4.654;2024-03-17T06:57:38;13.56;;;13.56;;
84866;SDS011;75123;51.788;4.654;2024-03-17T07:00:08;13.39;;;13.39;;
84866;SDS011;75123;51.788;4.654;2024-03-17T07:02:39;13.14;;;13.14;;
84866;SDS011;75123;51.788;4.654;2024-03-17T07:05:11;13.53;;;13.53;;
84866;SDS011;75123;51.788;4.654;2024-03-17T07:07:41;13.97;;;13.97;;
84866;SDS011;75123;51.788;4.654;2024-03-17T07:10:07;13.12;;;13.12;;
84866;SDS011;75123;51.788;4.654;2024-03-17T07:12:33;14.04;;;14.04;;
84866;SDS011;75123;51.788;4.654;2024-03-17T07:14:59;14.05;;;14.05;;
84866;SDS011;75123;51.788;4.654;2024-03-17T07:17:25;13.60;;;13.60;;
84866;SDS011;75123;51.788;4.654;2024-03-17T07:19:50;13.91;;;13.91;;
84866;SDS011;75123;51.788;4.654;2024-03-17T07:22:16;13.52;;;13.52;;
84866;SDS011;75123;51.788;4.654;2024-03-17T07:24:43;13.07;;;13.07;;
84866;SDS011;75123;51.788;4.654;2024-03-17T07:27:09;13.97;;;13.97;;
84866;SDS011;75123;51.788;4.654;2024-03-17T07:29:38;13.70;;;13.70;;
84866;SDS011;75123;51.788;4.654;2024-03-17T07:32:04;13.42;;;13.42;;
84866;SDS011;75123;51.788;4.654;2024-03-17T07:34:30;13.07;;;13.07;;
84866;SDS011;75123;51.788;4.654;2024-03-17T07:36:57;13.88;;;13.88;;
84866;SDS011;75123;51.788;4.654;2024-03-17T07:39:28;13.46;;;13.46;;
84866;SDS011;75123;51.788;4.654;2024-03-17T07:42:00;13.47;;;13.47;;
84866;SDS011;75123;51.788;4.654;2024-03-17T07:44:27;13.62;;;13.62;;
84866;SDS011;75123;51.788;4.654;2024-03-17T07:46:57;13.34;;;13.34;;
84866;SDS011;75123;51.788;4.654;2024-03-17T07:49:22;13.52;;;13.52;;
84866;SDS011;75123;51.788;4.654;2024-03-17T07:51:48;14.03;;;14.03;;
84866;SDS011;75123;51.788;4.654;2024-03-17T07:54:14;13.85;;;13.85;;
84866;SDS011;75123;51.788;4.654;2024-03-17T07:56:39;13.90;;;13.90;;
84866;SDS011;75123;51.788;4.654;2024-03-17T07:59:05;14.09;;;14.09;;
84866;SDS011;75123;51.788;4.654;2024-03-17T08:01:37;14.11;;;14.11;;
84866;SDS011;75123;51.788;4.654;2024-03-17T08:04:03;14.12;;;14.12;;
84866;SDS011;75123;51.788;4.654;2024-03-17T08:06:29;13.83;;;13.83;;
84866;SDS011;75123;51.788;4.654;2024-03-17T08:08:55;13.66;;;13.66;;
84866;SDS011;75123;51.788;4.654;2024-03-17T08:11:20;13.93;;;13.93;;
84866;SDS011;75123;51.788;4.654;2024-03-17T08:13:46;13.84;;;13.84;;
84866;SDS011;75123;51.788;4.654;2024-03-17T08:16:11;13.11;;;13.11;;
84866;SDS011;75123;51.788;4.654;2024-03-17T08:18:37;13.53;;;13.53;;
84866;SDS011;75123;51.788;4.654;2024-03-17T08:21:03;13.22;;;13.22;;
84866;SDS011;75123;51.788;4.654;2024-03-17T08:23:31;13.80;;;13.80;;
84866;SDS011;75123;51.788;4.654;2024-03-17T08:26:04;13.33;;;13.33;;
84866;SDS011;75123;51.788;4.654;2024-03-17T08:28:30;13.11;;;13.11;;
84866;SDS011;75123;51.788;4.654;2024-03-17T08:30:59;13.25;;;13.25;;
84866;SDS011;75123;51.788;4.654;2024-03-17T08:33:25;12.77;;;12.77;;
84866;SDS011;75123;51.788;4.654;2024-03-17T08:35:53;13.35;;;13.35;;
84866;SDS011;75123;51.788;4.654;2024-03-17T08:38:22;13.18;;;13.18;;
84866;SDS011;75123;51.788;4.654;2024-03-17T08:40:52;12.89;;;12.89;;
84866;SDS011;75123;51.788;4.654;2024-03-17T08:43:18;13.39;;;13.39;;
84866;SDS011;75123;51.788;4.654;2024-03-17T08:45:45;13.06;;;13.06;;
84866;SDS011;75123;51.788;4.654;2024-03-17T08:48:27;12.95;;;12.95;;
84866;SDS011;75123;51.788;4.654;2024-03-17T08:50:56;12.64;;;12.64;;
84866;SDS011;75123;51.788;4.654;2024-03-17T08:53:23;13.59;;;13.59;;
84866;SDS011;75123;51.788;4.654;2024-03-17T08:55:51;12.85;;;12.85;;
84866;SDS011;75123;51.788;4.654;2024-03-17T08:58:17;12.58;;;12.58;;
84866;SDS011;75123;51.788;4.654;2024-03-17T09:00:43;12.45;;;12.45;;
84866;SDS011;75123;51.788;4.654;2024-03-17T09:03:09;12.58;;;12.58;;
84866;SDS011;75123;51.788;4.654;2024-03-17T09:05:39;12.05;;;12.05;;
84866;SDS011;75123;51.788;4.654;2024-03-17T09:08:06;11.91;;;11.91;;
84866;SDS011;75123;51.788;4.654;2024-03-17T09:10:41;11.69;;;11.69;;
84866;SDS011;75123;51.788;4.654;2024-03-17T09:13:07;11.05;;;11.05;;
84866;SDS011;75123;51.788;4.654;2024-03-17T09:15:40;12.09;;;12.09;;
84866;SDS011;75123;51.788;4.654;2024-03-17T09:18:05;11.25;;;11.25;;
84866;SDS011;75123;51.788;4.654;2024-03-17T09:20:31;11.68;;;11.68;;
84866;SDS011;75123;51.788;4.654;2024-03-17T09:22:57;11.09;;;11.09;;
84866;SDS011;75123;51.788;4.654;2024-03-17T09:25:22;11.19;;;11.19;;
84866;SDS011;75123;51.788;4.654;2024-03-17T09:27:48;11.37;;;11.37;;
84866;SDS011;75123;51.788;4.654;2024-03-17T09:30:14;11.03;;;11.03;;
84866;SDS011;75123;51.788;4.654;2024-03-17T09:32:40;10.88;;;10.88;;
84866;SDS011;75123;51.788;4.654;2024-03-17T09:35:06;10.56;;;10.56;;
84866;SDS011;75123;51.788;4.654;2024-03-17T09:37:32;11.17;;;11.17;;
84866;SDS011;75123;51.788;4.654;2024-03-17T09:39:58;11.24;;;11.24;;
84866;SDS011;75123;51.788;4.654;2024-03-17T09:42:25;11.53;;;11.53;;
84866;SDS011;75123;51.788;4.654;2024-03-17T09:44:52;10.68;;;10.68;;
84866;SDS011;75123;51.788;4.654;2024-03-17T09:47:20;11.58;;;11.58;;
84866;SDS011;75123;51.788;4.654;2024-03-17T09:49:47;11.09;;;11.09;;
84866;SDS011;75123;51.788;4.654;2024-03-17T09:52:18;11.08;;;11.08;;
84866;SDS011;75123;51.788;4.654;2024-03-17T09:54:48;10.66;;;10.66;;
84866;SDS011;75123;51.788;4.654;2024-03-17T09:57:17;10.81;;;10.81;;
84866;SDS011;75123;51.788;4.654;2024-03-17T09:59:42;10.63;;;10.63;;
84866;SDS011;75123;51.788;4.654;2024-03-17T10:02:15;11.18;;;11.18;;
84866;SDS011;75123;51.788;4.654;2024-03-17T10:04:43;10.72;;;10.72;;
84866;SDS011;75123;51.788;4.654;2024-03-17T10:07:09;10.83;;;10.83;;
84866;SDS011;75123;51.788;4.654;2024-03-17T10:09:34;10.84;;;10.84;;
84866;SDS011;75123;51.788;4.654;2024-03-17T10:12:01;10.71;;;10.71;;
84866;SDS011;75123;51.788;4.654;2024-03-17T10:14:27;10.64;;;10.64;;
84866;SDS011;75123;51.788;4.654;2024-03-17T10:16:53;10.10;;;10.10;;
84866;SDS011;75123;51.788;4.654;2024-03-17T10:19:22;11.08;;;11.08;;
84866;SDS011;75123;51.788;4.654;2024-03-17T10:21:49;10.90;;;10.90;;
84866;SDS011;75123;51.788;4.654;2024-03-17T10:24:22;10.23;;;10.23;;
84866;SDS011;75123;51.788;4.654;2024-03-17T10:29:21;9.95;;;9.95;;
84866;SDS011;75123;51.788;4.654;2024-03-17T10:31:51;8.97;;;8.97;;
84866;SDS011;75123;51.788;4.654;2024-03-17T10:34:18;9.09;;;9.09;;
84866;SDS011;75123;51.788;4.654;2024-03-17T10:36:46;8.67;;;8.67;;
84866;SDS011;75123;51.788;4.654;2024-03-17T10:39:24;8.61;;;8.61;;
84866;SDS011;75123;51.788;4.654;2024-03-17T10:42:03;8.49;;;8.49;;
84866;SDS011;75123;51.788;4.654;2024-03-17T10:44:31;8.81;;;8.81;;
84866;SDS011;75123;51.788;4.654;2024-03-17T10:46:58;9.63;;;9.63;;
84866;SDS011;75123;51.788;4.654;2024-03-17T10:49:29;8.15;;;8.15;;
84866;SDS011;75123;51.788;4.654;2024-03-17T10:51:57;8.62;;;8.62;;
84866;SDS011;75123;51.788;4.654;2024-03-17T10:54:27;8.96;;;8.96;;
84866;SDS011;75123;51.788;4.654;2024-03-17T10:56:57;9.18;;;9.18;;
84866;SDS011;75123;51.788;4.654;2024-03-17T10:59:35;9.26;;;9.26;;
84866;SDS011;75123;51.788;4.654;2024-03-17T11:02:15;8.72;;;8.72;;
84866;SDS011;75123;51.788;4.654;2024-03-17T11:04:49;9.30;;;9.30;;
84866;SDS011;75123;51.788;4.654;2024-03-17T11:07:17;9.20;;;9.20;;
84866;SDS011;75123;51.788;4.654;2024-03-17T11:09:44;8.88;;;8.88;;
84866;SDS011;75123;51.788;4.654;2024-03-17T11:17:45;8.84;;;8.84;;
84866;SDS011;75123;51.788;4.654;2024-03-17T11:20:15;8.73;;;8.73;;
84866;SDS011;75123;51.788;4.654;2024-03-17T11:22:42;8.70;;;8.70;;
84866;SDS011;75123;51.788;4.654;2024-03-17T11:25:56;8.80;;;8.80;;
84866;SDS011;75123;51.788;4.654;2024-03-17T11:27:59;8.93;;;8.93;;
84866;SDS011;75123;51.788;4.654;2024-03-17T11:39:00;8.60;;;8.60;;
84866;SDS011;75123;51.788;4.654;2024-03-17T11:41:45;8.18;;;8.18;;
84866;SDS011;75123;51.788;4.654;2024-03-17T11:46:55;8.19;;;8.19;;
84866;SDS011;75123;51.788;4.654;2024-03-17T11:52:03;8.25;;;8.25;;
84866;SDS011;75123;51.788;4.654;2024-03-17T11:54:30;7.74;;;7.74;;
84866;SDS011;75123;51.788;4.654;2024-03-17T11:57:01;7.40;;;7.40;;
84866;SDS011;75123;51.788;4.654;2024-03-17T11:59:34;7.35;;;7.35;;
84866;SDS011;75123;51.788;4.654;2024-03-17T12:02:00;6.73;;;6.73;;
84866;SDS011;75123;51.788;4.654;2024-03-17T12:04:27;7.28;;;7.28;;
84866;SDS011;75123;51.788;4.654;2024-03-17T12:06:58;6.83;;;6.83;;
84866;SDS011;75123;51.788;4.654;2024-03-17T12:09:25;6.68;;;6.68;;
84866;SDS011;75123;51.788;4.654;2024-03-17T12:14:31;6.19;;;6.19;;
84866;SDS011;75123;51.788;4.654;2024-03-17T12:16:59;6.19;;;6.19;;
84866;SDS011;75123;51.788;4.654;2024-03-17T12:19:26;6.17;;;6.17;;
84866;SDS011;75123;51.788;4.654;2024-03-17T12:21:53;6.27;;;6.27;;
84866;SDS011;75123;51.788;4.654;2024-03-17T12:24:20;6.18;;;6.18;;
84866;SDS011;75123;51.788;4.654;2024-03-17T12:26:48;6.31;;;6.31;;
84866;SDS011;75123;51.788;4.654;2024-03-17T12:29:34;6.18;;;6.18;;
84866;SDS011;75123;51.788;4.654;2024-03-17T12:32:16;6.32;;;6.32;;
84866;SDS011;75123;51.788;4.654;2024-03-17T12:34:43;6.59;;;6.59;;
84866;SDS011;75123;51.788;4.654;2024-03-17T12:37:20;6.32;;;6.32;;
84866;SDS011;75123;51.788;4.654;2024-03-17T12:39:58;6.31;;;6.31;;
84866;SDS011;75123;51.788;4.654;2024-03-17T12:42:27;6.49;;;6.49;;
84866;SDS011;75123;51.788;4.654;2024-03-17T12:44:57;6.75;;;6.75;;
84866;SDS011;75123;51.788;4.654;2024-03-17T12:47:24;6.35;;;6.35;;
84866;SDS011;75123;51.788;4.654;2024-03-17T12:49:54;6.00;;;6.00;;
84866;SDS011;75123;51.788;4.654;2024-03-17T12:52:31;5.77;;;5.77;;
84866;SDS011;75123;51.788;4.654;2024-03-17T12:57:45;5.43;;;5.43;;
84866;SDS011;75123;51.788;4.654;2024-03-17T13:00:30;5.78;;;5.78;;
84866;SDS011;75123;51.788;4.654;2024-03-17T13:02:59;5.56;;;5.56;;
84866;SDS011;75123;51.788;4.654;2024-03-17T13:05:29;5.68;;;5.68;;
84866;SDS011;75123;51.788;4.654;2024-03-17T13:07:56;5.55;;;5.55;;
84866;SDS011;75123;51.788;4.654;2024-03-17T13:10:23;5.37;;;5.37;;
84866;SDS011;75123;51.788;4.654;2024-03-17T13:13:03;5.20;;;5.20;;
84866;SDS011;75123;51.788;4.654;2024-03-17T13:15:30;5.39;;;5.39;;
84866;SDS011;75123;51.788;4.654;2024-03-17T13:18:00;5.79;;;5.79;;
84866;SDS011;75123;51.788;4.654;2024-03-17T13:20:26;6.15;;;6.15;;
84866;SDS011;75123;51.788;4.654;2024-03-17T13:22:52;6.16;;;6.16;;
84866;SDS011;75123;51.788;4.654;2024-03-17T13:25:19;6.51;;;6.51;;
84866;SDS011;75123;51.788;4.654;2024-03-17T13:27:53;6.08;;;6.08;;
84866;SDS011;75123;51.788;4.654;2024-03-17T13:30:19;5.26;;;5.26;;
84866;SDS011;75123;51.788;4.654;2024-03-17T13:32:48;4.86;;;4.86;;
84866;SDS011;75123;51.788;4.654;2024-03-17T13:35:18;4.76;;;4.76;;
84866;SDS011;75123;51.788;4.654;2024-03-17T13:37:45;5.70;;;5.70;;
84866;SDS011;75123;51.788;4.654;2024-03-17T13:40:11;5.71;;;5.71;;
84866;SDS011;75123;51.788;4.654;2024-03-17T13:42:40;5.83;;;5.83;;
84866;SDS011;75123;51.788;4.654;2024-03-17T13:45:07;5.88;;;5.88;;
84866;SDS011;75123;51.788;4.654;2024-03-17T13:47:36;5.55;;;5.55;;
84866;SDS011;75123;51.788;4.654;2024-03-17T13:50:01;5.72;;;5.72;;
84866;SDS011;75123;51.788;4.654;2024-03-17T13:52:31;5.62;;;5.62;;
84866;SDS011;75123;51.788;4.654;2024-03-17T13:54:57;5.36;;;5.36;;
84866;SDS011;75123;51.788;4.654;2024-03-17T13:57:24;5.15;;;5.15;;
84866;SDS011;75123;51.788;4.654;2024-03-17T13:59:50;5.13;;;5.13;;
84866;SDS011;75123;51.788;4.654;2024-03-17T14:02:17;4.97;;;4.97;;
84866;SDS011;75123;51.788;4.654;2024-03-17T14:04:43;4.90;;;4.90;;
84866;SDS011;75123;51.788;4.654;2024-03-17T14:07:09;4.93;;;4.93;;
84866;SDS011;75123;51.788;4.654;2024-03-17T14:09:35;4.95;;;4.95;;
84866;SDS011;75123;51.788;4.654;2024-03-17T14:12:00;5.06;;;5.06;;
84866;SDS011;75123;51.788;4.654;2024-03-17T14:14:26;4.62;;;4.62;;
84866;SDS011;75123;51.788;4.654;2024-03-17T14:16:51;4.47;;;4.47;;
84866;SDS011;75123;51.788;4.654;2024-03-17T14:19:17;4.31;;;4.31;;
84866;SDS011;75123;51.788;4.654;2024-03-17T14:21:42;4.46;;;4.46;;
84866;SDS011;75123;51.788;4.654;2024-03-17T14:24:08;4.86;;;4.86;;
84866;SDS011;75123;51.788;4.654;2024-03-17T14:26:35;4.75;;;4.75;;
84866;SDS011;75123;51.788;4.654;2024-03-17T14:29:01;4.58;;;4.57;;
84866;SDS011;75123;51.788;4.654;2024-03-17T14:31:31;4.78;;;4.78;;
84866;SDS011;75123;51.788;4.654;2024-03-17T14:33:57;4.58;;;4.58;;
84866;SDS011;75123;51.788;4.654;2024-03-17T14:36:23;4.63;;;4.63;;
84866;SDS011;75123;51.788;4.654;2024-03-17T14:38:54;4.50;;;4.50;;
84866;SDS011;75123;51.788;4.654;2024-03-17T14:41:20;4.88;;;4.88;;
84866;SDS011;75123;51.788;4.654;2024-03-17T14:43:46;4.83;;;4.83;;
84866;SDS011;75123;51.788;4.654;2024-03-17T14:46:12;4.72;;;4.72;;
84866;SDS011;75123;51.788;4.654;2024-03-17T14:48:41;4.71;;;4.71;;
84866;SDS011;75123;51.788;4.654;2024-03-17T14:51:08;4.51;;;4.51;;
84866;SDS011;75123;51.788;4.654;2024-03-17T14:53:34;4.75;;;4.75;;
84866;SDS011;75123;51.788;4.654;2024-03-17T14:56:01;4.88;;;4.88;;
84866;SDS011;75123;51.788;4.654;2024-03-17T14:58:30;4.77;;;4.77;;
84866;SDS011;75123;51.788;4.654;2024-03-17T15:00:56;4.86;;;4.86;;
84866;SDS011;75123;51.788;4.654;2024-03-17T15:03:21;4.97;;;4.97;;
84866;SDS011;75123;51.788;4.654;2024-03-17T15:05:47;4.92;;;4.92;;